Time;durP1;ratioP1;P1;durP2;ratioP2;P2;SDS_P1;SDS_P2;PMS_P1;PMS_P2;Temp;Humidity;BMP_temperature;BMP_pressure;BME280_temperature;BME280_humidity;BME280_pressure;Samples;Min_cycle;Max_cycle;Signal;HPM_P1;HPM_P2
2024/02/17 00:02:02;;;;;;;24.70;19.90;;;14.00;99.90;;;;;;4993476;28;20939;-72
2024/02/17 00:04:28;;;;;;;23.83;18.83;;;14.00;99.90;;;;;;4995638;28;20460;-73
2024/02/17 00:06:54;;;;;;;23.37;18.63;;;14.00;99.90;;;;;;4994755;28;20816;-72
2024/02/17 00:09:20;;;;;;;26.33;19.40;;;13.90;99.90;;;;;;4995538;28;20450;-72
2024/02/17 00:11:46;;;;;;;27.03;20.43;;;14.00;99.90;;;;;;4994629;28;20828;-73
2024/02/17 00:14:12;;;;;;;28.40;20.80;;;14.00;99.90;;;;;;4995430;28;20179;-72
2024/02/17 00:16:38;;;;;;;31.63;21.67;;;14.00;99.90;;;;;;4994170;28;20473;-68
2024/02/17 00:19:04;;;;;;;29.03;21.10;;;13.90;99.90;;;;;;4995420;28;20172;-71
2024/02/17 00:21:30;;;;;;;28.90;22.60;;;13.80;99.90;;;;;;4995014;28;20192;-67
2024/02/17 00:23:56;;;;;;;30.20;21.47;;;13.80;99.90;;;;;;4994392;28;21000;-71
2024/02/17 00:26:22;;;;;;;28.10;21.47;;;13.80;99.90;;;;;;4995213;28;20414;-71
2024/02/17 00:28:51;;;;;;;28.43;21.30;;;13.70;99.90;;;;;;4994370;28;20449;-71
2024/02/17 00:31:18;;;;;;;26.80;20.13;;;13.70;99.90;;;;;;4995100;28;20438;-71
2024/02/17 00:33:44;;;;;;;28.43;22.30;;;13.70;99.90;;;;;;4993397;28;20435;-67
2024/02/17 00:36:10;;;;;;;28.73;22.00;;;13.70;99.90;;;;;;4994023;28;20423;-76
2024/02/17 00:38:36;;;;;;;24.57;20.13;;;13.70;99.90;;;;;;4994593;28;20434;-65
2024/02/17 00:41:06;;;;;;;27.00;22.23;;;13.60;99.90;;;;;;4994622;28;20890;-76
2024/02/17 00:43:32;;;;;;;30.00;21.77;;;13.70;99.90;;;;;;4994922;28;20392;-76
2024/02/17 00:45:58;;;;;;;26.87;21.33;;;13.70;99.90;;;;;;4994008;28;21019;-76
2024/02/17 00:48:25;;;;;;;26.80;21.70;;;13.60;99.90;;;;;;4994823;28;20504;-76
2024/02/17 00:50:52;;;;;;;30.03;22.10;;;13.70;99.90;;;;;;4993749;28;20193;-78
2024/02/17 00:53:17;;;;;;;32.00;23.83;;;13.70;99.90;;;;;;4993967;28;20414;-77
2024/02/17 00:55:43;;;;;;;28.00;22.90;;;13.70;99.90;;;;;;4993993;28;20464;-78
2024/02/17 00:58:09;;;;;;;28.70;23.10;;;13.70;99.90;;;;;;4976042;28;20218;-78
2024/02/17 01:00:35;;;;;;;31.57;23.17;;;13.70;99.90;;;;;;4993687;28;20197;-78
2024/02/17 01:03:00;;;;;;;29.70;21.90;;;13.70;99.90;;;;;;4992349;28;20274;-78
2024/02/17 01:05:26;;;;;;;26.57;21.87;;;13.70;99.90;;;;;;4977253;28;20182;-78
2024/02/17 01:07:52;;;;;;;27.83;21.50;;;13.60;99.90;;;;;;4993754;28;20211;-78
2024/02/17 01:10:18;;;;;;;28.10;22.60;;;13.60;99.90;;;;;;4994641;28;20230;-78
2024/02/17 01:12:43;;;;;;;28.83;22.03;;;13.60;99.90;;;;;;4976296;28;20216;-78
2024/02/17 01:15:09;;;;;;;32.17;23.80;;;13.60;99.90;;;;;;4994243;28;20183;-77
2024/02/17 01:17:36;;;;;;;27.60;22.67;;;13.70;99.90;;;;;;4993965;28;20238;-77
2024/02/17 01:20:02;;;;;;;33.93;24.50;;;13.60;99.90;;;;;;4993376;28;20179;-78
2024/02/17 01:22:28;;;;;;;28.23;21.73;;;13.70;99.90;;;;;;4993900;28;20783;-78
2024/02/17 01:24:53;;;;;;;31.70;23.70;;;13.70;99.90;;;;;;4993291;28;20426;-76
2024/02/17 01:27:19;;;;;;;27.83;21.57;;;13.70;99.90;;;;;;4994169;28;20177;-75
2024/02/17 01:29:45;;;;;;;28.80;22.23;;;13.70;99.90;;;;;;4992078;28;20179;-76
2024/02/17 01:32:11;;;;;;;31.40;24.47;;;13.70;99.90;;;;;;4993037;28;20321;-76
2024/02/17 01:34:36;;;;;;;32.40;23.10;;;13.70;99.90;;;;;;4994311;28;20178;-77
2024/02/17 01:37:02;;;;;;;33.30;24.13;;;13.60;99.90;;;;;;4992857;28;20668;-76
2024/02/17 01:39:28;;;;;;;33.57;24.47;;;13.60;99.90;;;;;;4971463;28;20187;-77
2024/02/17 01:41:55;;;;;;;32.37;23.80;;;13.60;99.90;;;;;;4973710;28;20767;-76
2024/02/17 01:44:20;;;;;;;32.90;23.27;;;13.60;99.90;;;;;;4974393;28;20412;-77
2024/02/17 01:46:48;;;;;;;33.10;22.87;;;13.60;99.90;;;;;;4973585;28;20427;-77
2024/02/17 01:49:15;;;;;;;33.40;23.60;;;13.50;99.90;;;;;;4974403;28;20403;-77
2024/02/17 01:51:41;;;;;;;35.00;22.57;;;13.60;99.90;;;;;;4977545;28;20428;-64
2024/02/17 01:54:08;;;;;;;37.60;25.00;;;13.60;99.90;;;;;;4970077;28;20499;-77
2024/02/17 01:56:35;;;;;;;31.73;23.30;;;13.50;99.90;;;;;;4974073;28;20793;-77
2024/02/17 01:59:02;;;;;;;31.37;22.90;;;13.50;99.90;;;;;;4973327;28;20412;-77
2024/02/17 02:01:28;;;;;;;33.13;24.03;;;13.50;99.90;;;;;;4973967;28;20408;-76
2024/02/17 02:03:54;;;;;;;34.80;24.27;;;13.50;99.90;;;;;;4992458;28;20430;-78
2024/02/17 02:06:24;;;;;;;33.80;23.97;;;13.50;99.90;;;;;;4975758;28;20425;-76
2024/02/17 02:08:50;;;;;;;30.93;22.37;;;13.50;99.90;;;;;;4992553;28;20171;-76
2024/02/17 02:11:18;;;;;;;35.50;22.77;;;13.50;99.90;;;;;;4993043;28;20422;-78
2024/02/17 02:13:44;;;;;;;26.20;20.43;;;13.50;99.90;;;;;;4975106;28;20437;-64
2024/02/17 02:16:10;;;;;;;27.27;21.20;;;13.50;99.90;;;;;;4992812;28;20431;-77
2024/02/17 02:18:36;;;;;;;34.50;22.90;;;13.50;99.90;;;;;;4993251;28;20458;-77
2024/02/17 02:21:03;;;;;;;29.57;21.83;;;13.50;99.90;;;;;;4992671;28;20473;-77
2024/02/17 02:23:29;;;;;;;31.90;23.43;;;13.50;99.90;;;;;;4959463;28;20505;-77
2024/02/17 02:25:55;;;;;;;31.40;21.80;;;13.40;99.90;;;;;;4974884;28;20503;-78
2024/02/17 02:28:22;;;;;;;31.03;21.37;;;13.50;99.90;;;;;;4992949;28;20199;-77
2024/02/17 02:30:50;;;;;;;33.43;22.93;;;13.40;99.90;;;;;;4992234;28;20422;-77
2024/02/17 02:33:16;;;;;;;33.03;22.70;;;13.40;99.90;;;;;;4992294;28;20438;-77
2024/02/17 02:35:43;;;;;;;28.73;22.03;;;13.40;99.90;;;;;;4991326;28;20427;-65
2024/02/17 02:38:08;;;;;;;34.50;22.30;;;13.40;99.90;;;;;;4988080;28;20600;-77
2024/02/17 02:40:34;;;;;;;28.50;21.67;;;13.40;99.90;;;;;;4992332;28;20914;-77
2024/02/17 02:43:00;;;;;;;27.97;21.70;;;13.40;99.90;;;;;;4992096;28;20183;-77
2024/02/17 02:45:25;;;;;;;30.00;21.57;;;13.40;99.90;;;;;;4992947;28;20218;-77
2024/02/17 02:47:51;;;;;;;31.43;23.27;;;13.40;99.90;;;;;;4992252;28;20182;-77
2024/02/17 02:50:17;;;;;;;32.07;23.17;;;13.40;99.90;;;;;;4992844;28;20226;-77
2024/02/17 02:52:43;;;;;;;30.80;22.80;;;13.40;99.90;;;;;;4991982;28;20185;-64
2024/02/17 02:55:09;;;;;;;34.37;24.30;;;13.40;99.90;;;;;;4991468;28;20225;-77
2024/02/17 02:57:35;;;;;;;29.50;22.43;;;13.40;99.90;;;;;;4992473;28;20207;-77
2024/02/17 03:00:00;;;;;;;29.97;22.93;;;13.40;99.90;;;;;;4991932;28;20910;-77
2024/02/17 03:02:26;;;;;;;29.73;22.10;;;13.40;99.90;;;;;;4992908;28;20186;-77
2024/02/17 03:04:53;;;;;;;32.50;23.07;;;13.40;99.90;;;;;;4991901;28;20201;-77
2024/02/17 03:07:19;;;;;;;29.63;21.07;;;13.30;99.90;;;;;;4992492;28;20191;-77
2024/02/17 03:09:45;;;;;;;30.80;22.93;;;13.40;99.90;;;;;;4992352;28;20940;-65
2024/02/17 03:12:11;;;;;;;31.33;22.20;;;13.40;99.90;;;;;;4991890;28;20175;-77
2024/02/17 03:14:39;;;;;;;30.20;22.77;;;13.40;99.90;;;;;;4992569;28;20395;-77
2024/02/17 03:17:04;;;;;;;31.83;22.00;;;13.40;99.90;;;;;;4991435;28;20234;-76
2024/02/17 03:19:30;;;;;;;32.70;23.07;;;13.40;99.90;;;;;;4992417;28;20434;-77
2024/02/17 03:21:56;;;;;;;33.53;23.20;;;13.40;99.90;;;;;;4974082;28;20191;-77
2024/02/17 03:24:22;;;;;;;33.53;21.83;;;13.40;99.90;;;;;;4991797;28;20192;-77
2024/02/17 03:26:49;;;;;;;32.87;23.37;;;13.40;99.90;;;;;;4993771;28;20823;-64
2024/02/17 03:29:15;;;;;;;29.17;20.90;;;13.40;99.90;;;;;;4996405;28;20410;-77
2024/02/17 03:31:41;;;;;;;29.67;22.37;;;13.40;99.90;;;;;;4996384;28;20409;-79
2024/02/17 03:34:07;;;;;;;30.83;22.30;;;13.30;99.90;;;;;;4995497;28;21039;-79
2024/02/17 03:36:33;;;;;;;32.23;21.97;;;13.30;99.90;;;;;;4996055;28;20543;-78
2024/02/17 03:38:59;;;;;;;34.03;22.03;;;13.30;99.90;;;;;;4994804;28;20215;-79
2024/02/17 03:41:26;;;;;;;31.47;22.00;;;13.30;99.90;;;;;;4978793;28;20505;-77
2024/02/17 03:43:52;;;;;;;31.23;22.80;;;13.30;99.90;;;;;;4994549;28;20198;-78
2024/02/17 03:46:18;;;;;;;28.27;21.37;;;13.20;99.90;;;;;;4994932;28;20439;-78
2024/02/17 03:48:44;;;;;;;30.57;21.33;;;13.20;99.90;;;;;;4995921;28;20422;-78
2024/02/17 03:51:10;;;;;;;28.43;21.40;;;13.30;99.90;;;;;;4977522;28;20632;-77
2024/02/17 03:53:36;;;;;;;30.50;22.67;;;13.30;99.90;;;;;;4995878;28;20720;-77
2024/02/17 03:56:02;;;;;;;29.37;21.70;;;13.30;99.90;;;;;;4995047;28;20258;-79
2024/02/17 03:58:28;;;;;;;30.30;19.67;;;13.30;99.90;;;;;;4995489;28;20481;-78
2024/02/17 04:00:54;;;;;;;31.57;23.03;;;13.30;99.90;;;;;;4994929;28;20411;-78
2024/02/17 04:03:19;;;;;;;31.07;21.53;;;13.30;99.90;;;;;;4994291;28;20182;-78
2024/02/17 04:05:45;;;;;;;29.60;21.50;;;13.30;99.90;;;;;;4995685;28;20186;-78
2024/02/17 04:08:11;;;;;;;29.73;20.80;;;13.20;99.90;;;;;;4977124;28;20180;-78
2024/02/17 04:10:38;;;;;;;30.27;21.47;;;13.20;99.90;;;;;;4995521;28;20184;-78
2024/02/17 04:13:04;;;;;;;32.10;22.03;;;13.20;99.90;;;;;;4994657;28;20181;-77
2024/02/17 04:15:30;;;;;;;30.10;21.90;;;13.10;99.90;;;;;;4976719;28;20448;-78
2024/02/17 04:17:55;;;;;;;28.00;20.60;;;13.10;99.90;;;;;;4993522;28;20477;-78
2024/02/17 04:20:21;;;;;;;31.20;20.73;;;13.20;99.90;;;;;;4995393;28;20266;-78
2024/02/17 04:22:47;;;;;;;27.77;21.90;;;13.20;99.90;;;;;;4995065;28;20179;-78
2024/02/17 04:25:13;;;;;;;29.77;22.20;;;13.20;99.90;;;;;;4994582;28;20178;-77
2024/02/17 04:27:39;;;;;;;27.57;21.57;;;13.20;99.90;;;;;;4994936;28;20645;-78
2024/02/17 04:30:05;;;;;;;31.37;22.80;;;13.20;99.90;;;;;;4994394;28;20202;-77
2024/02/17 04:32:31;;;;;;;29.00;22.70;;;13.20;99.90;;;;;;4993738;28;20817;-78
2024/02/17 04:34:57;;;;;;;30.67;21.97;;;13.20;99.90;;;;;;4976776;28;20517;-77
2024/02/17 04:37:22;;;;;;;30.33;22.17;;;13.20;99.90;;;;;;4994199;28;20199;-77
2024/02/17 04:39:48;;;;;;;31.10;22.80;;;13.30;99.90;;;;;;4994779;28;20176;-77
2024/02/17 04:42:14;;;;;;;28.40;22.20;;;13.20;99.90;;;;;;4994394;28;20245;-77
2024/02/17 04:44:40;;;;;;;34.20;24.33;;;13.30;99.90;;;;;;4993752;28;20763;-76
2024/02/17 04:47:05;;;;;;;30.37;22.33;;;13.20;99.90;;;;;;4976027;28;20553;-76
2024/02/17 04:49:33;;;;;;;34.13;24.50;;;13.30;99.90;;;;;;4994900;28;20186;-76
2024/02/17 04:51:59;;;;;;;35.07;23.53;;;13.30;99.90;;;;;;4993894;28;20179;-77
2024/02/17 04:54:25;;;;;;;35.20;24.40;;;13.30;99.90;;;;;;4994849;28;20415;-77
2024/02/17 04:56:51;;;;;;;33.00;23.13;;;13.30;99.90;;;;;;4994055;28;20465;-64
2024/02/17 04:59:17;;;;;;;31.07;23.10;;;13.30;99.90;;;;;;4976798;28;20274;-77
2024/02/17 05:01:45;;;;;;;30.63;24.70;;;13.30;99.90;;;;;;4994391;28;20242;-77
2024/02/17 05:04:11;;;;;;;32.57;24.63;;;13.20;99.90;;;;;;4976337;28;20893;-78
2024/02/17 05:06:37;;;;;;;33.60;25.10;;;13.20;99.90;;;;;;4994695;28;20436;-78
2024/02/17 05:09:02;;;;;;;32.30;24.07;;;13.20;99.90;;;;;;4993656;28;20202;-77
2024/02/17 05:11:29;;;;;;;39.23;27.43;;;13.20;99.90;;;;;;4994419;28;20184;-78
2024/02/17 05:13:54;;;;;;;36.50;26.30;;;13.30;99.90;;;;;;4993409;28;20183;-64
2024/02/17 05:16:20;;;;;;;36.57;26.37;;;13.20;99.90;;;;;;4993147;28;20456;-78
2024/02/17 05:18:46;;;;;;;37.20;26.07;;;13.20;99.90;;;;;;4994349;28;20375;-78
2024/02/17 05:21:12;;;;;;;37.27;25.07;;;13.20;99.90;;;;;;4993510;28;20760;-78
2024/02/17 05:23:39;;;;;;;34.87;26.77;;;13.30;99.90;;;;;;4994183;28;20569;-78
2024/02/17 05:26:05;;;;;;;35.10;25.93;;;13.30;99.90;;;;;;4975720;28;20934;-78
2024/02/17 05:28:30;;;;;;;34.77;26.93;;;13.30;99.90;;;;;;4994278;28;20407;-77
2024/02/17 05:30:56;;;;;;;40.60;26.60;;;13.20;99.90;;;;;;4993257;28;20545;-71
2024/02/17 05:33:22;;;;;;;36.03;26.30;;;13.30;99.90;;;;;;4994290;28;20179;-78
2024/02/17 05:35:49;;;;;;;36.30;26.27;;;13.30;99.90;;;;;;4993676;28;20563;-77
2024/02/17 05:38:14;;;;;;;37.40;26.30;;;13.30;99.90;;;;;;4992942;28;20217;-77
2024/02/17 05:40:40;;;;;;;36.30;26.00;;;13.30;99.90;;;;;;4993563;28;20427;-77
2024/02/17 05:43:06;;;;;;;38.10;27.20;;;13.30;99.90;;;;;;4992456;28;20544;-77
2024/02/17 05:45:32;;;;;;;35.30;25.67;;;13.20;99.90;;;;;;4992465;28;20206;-78
2024/02/17 05:47:57;;;;;;;39.87;27.93;;;13.30;99.90;;;;;;4992128;28;20190;-73
2024/02/17 05:50:24;;;;;;;40.20;27.33;;;13.20;99.90;;;;;;4993625;28;20512;-78
2024/02/17 05:52:50;;;;;;;37.50;26.80;;;13.20;99.90;;;;;;4993661;28;20282;-77
2024/02/17 05:55:16;;;;;;;41.30;28.13;;;13.20;99.90;;;;;;4992841;28;20935;-78
2024/02/17 05:57:42;;;;;;;35.53;26.60;;;13.20;99.90;;;;;;4975790;28;20288;-77
2024/02/17 06:00:09;;;;;;;35.70;26.90;;;13.20;99.90;;;;;;4992413;28;20493;-79
2024/02/17 06:02:35;;;;;;;39.53;28.73;;;13.20;99.90;;;;;;4993211;28;20184;-77
2024/02/17 06:05:02;;;;;;;38.23;27.80;;;13.20;99.90;;;;;;4992421;28;20912;-78
2024/02/17 06:07:28;;;;;;;37.77;27.43;;;13.20;99.90;;;;;;4993129;28;20210;-69
2024/02/17 06:09:54;;;;;;;40.13;28.20;;;13.20;99.90;;;;;;4991864;28;20457;-63
2024/02/17 06:12:20;;;;;;;36.50;27.40;;;13.20;99.90;;;;;;4992508;28;20454;-68
2024/02/17 06:14:46;;;;;;;37.93;27.50;;;13.20;99.90;;;;;;4992595;28;20187;-68
2024/02/17 06:17:22;;;;;;;37.27;28.17;;;13.20;99.90;;;;;;4991848;28;20485;-67
2024/02/17 06:22:35;;;;;;;41.97;28.50;;;13.20;99.90;;;;;;4993372;28;20409;-68
2024/02/17 06:25:01;;;;;;;38.80;27.73;;;13.20;99.90;;;;;;4992284;28;20413;-67
2024/02/17 06:27:27;;;;;;;34.97;26.77;;;13.20;99.90;;;;;;4993092;28;20183;-67
2024/02/17 06:29:52;;;;;;;40.07;29.20;;;13.20;99.90;;;;;;4992967;28;20183;-64
2024/02/17 06:32:18;;;;;;;39.50;27.80;;;13.20;99.90;;;;;;4992004;28;20175;-67
2024/02/17 06:34:46;;;;;;;37.73;28.90;;;13.20;99.90;;;;;;4992910;28;20178;-67
2024/02/17 06:37:12;;;;;;;40.50;28.13;;;13.30;99.90;;;;;;4991418;28;20199;-67
2024/02/17 06:39:38;;;;;;;46.67;28.30;;;13.30;99.90;;;;;;4992423;28;20476;-67
2024/02/17 06:42:04;;;;;;;39.67;29.10;;;13.30;99.90;;;;;;4991934;28;20684;-67
2024/02/17 06:44:30;;;;;;;41.70;27.60;;;13.20;99.90;;;;;;4991928;28;20436;-67
2024/02/17 06:46:55;;;;;;;37.23;27.87;;;13.20;99.90;;;;;;4992145;28;20187;-67
2024/02/17 06:49:21;;;;;;;35.20;27.73;;;13.20;99.90;;;;;;4991915;28;20546;-68
2024/02/17 06:51:47;;;;;;;40.33;28.93;;;13.20;99.90;;;;;;4992856;28;20179;-68
2024/02/17 06:54:13;;;;;;;38.77;28.23;;;13.20;99.90;;;;;;4992115;28;20183;-68
2024/02/17 06:56:38;;;;;;;40.07;27.43;;;13.20;99.90;;;;;;4992579;28;20681;-68
2024/02/17 06:59:04;;;;;;;38.80;28.57;;;13.20;99.90;;;;;;4991758;28;20206;-68
2024/02/17 07:01:30;;;;;;;36.97;28.30;;;13.20;99.90;;;;;;4994221;28;20265;-68
2024/02/17 07:03:55;;;;;;;35.63;25.97;;;13.20;99.90;;;;;;4996964;28;20210;-68
2024/02/17 07:06:21;;;;;;;44.17;27.60;;;13.30;99.90;;;;;;4995842;28;20246;-68
2024/02/17 07:08:48;;;;;;;36.93;28.20;;;13.30;99.90;;;;;;4995791;28;20232;-66
2024/02/17 07:11:17;;;;;;;38.33;28.60;;;13.30;99.90;;;;;;4995996;28;20190;-68
2024/02/17 07:13:43;;;;;;;39.53;28.33;;;13.20;99.90;;;;;;4996652;28;20414;-68
2024/02/17 07:16:09;;;;;;;36.60;29.27;;;13.20;99.90;;;;;;4994751;28;20528;-68
2024/02/17 07:18:37;;;;;;;35.70;28.43;;;13.20;99.90;;;;;;4995779;28;20486;-68
2024/02/17 07:21:04;;;;;;;39.60;28.90;;;13.20;99.90;;;;;;4978601;28;20837;-68
2024/02/17 07:23:30;;;;;;;39.30;29.90;;;13.10;99.90;;;;;;4996057;28;20409;-68
2024/02/17 07:25:57;;;;;;;38.17;29.57;;;13.10;99.90;;;;;;4996245;28;20419;-69
2024/02/17 07:28:23;;;;;;;41.13;29.43;;;13.10;99.90;;;;;;4995164;28;20494;-68
2024/02/17 07:30:49;;;;;;;43.10;31.27;;;13.10;99.90;;;;;;4995517;28;20437;-68
2024/02/17 07:33:16;;;;;;;44.80;30.17;;;13.10;99.90;;;;;;4995219;28;20416;-66
2024/02/17 07:35:44;;;;;;;43.43;30.10;;;13.10;99.90;;;;;;4994373;28;20926;-69
2024/02/17 07:38:11;;;;;;;39.80;29.13;;;13.00;99.90;;;;;;4994207;28;20508;-68
2024/02/17 07:40:37;;;;;;;45.63;29.40;;;13.00;99.90;;;;;;4996026;28;20409;-67
2024/02/17 07:43:04;;;;;;;41.40;30.53;;;13.10;99.90;;;;;;4994545;28;20911;-72
2024/02/17 07:45:30;;;;;;;44.80;30.90;;;13.10;99.90;;;;;;4995992;28;20453;-69
2024/02/17 07:47:56;;;;;;;42.27;29.13;;;13.10;99.90;;;;;;4994970;28;20862;-69
2024/02/17 07:50:22;;;;;;;41.70;30.53;;;13.10;99.90;;;;;;4995141;28;20510;-68
2024/02/17 07:52:54;;;;;;;41.23;29.40;;;13.10;99.90;;;;;;4995916;28;20453;-69
2024/02/17 07:55:20;;;;;;;42.50;29.53;;;13.20;99.90;;;;;;4995608;28;20182;-69
2024/02/17 07:57:45;;;;;;;38.43;27.73;;;13.10;99.90;;;;;;4978652;28;20462;-70
2024/02/17 08:00:12;;;;;;;43.63;30.90;;;13.10;99.90;;;;;;4995519;28;20817;-69
2024/02/17 08:02:39;;;;;;;41.07;29.40;;;13.10;99.90;;;;;;4995956;28;20630;-69
2024/02/17 08:05:04;;;;;;;44.70;30.87;;;13.20;99.90;;;;;;4961889;28;20766;-68
2024/02/17 08:07:30;;;;;;;39.40;31.57;;;13.20;99.90;;;;;;4996044;28;20418;-69
2024/02/17 08:09:56;;;;;;;46.10;31.20;;;13.20;99.90;;;;;;4978552;28;20183;-69
2024/02/17 08:12:23;;;;;;;43.67;29.00;;;13.20;99.90;;;;;;4977653;28;20186;-68
2024/02/17 08:14:52;;;;;;;44.87;29.50;;;13.20;99.90;;;;;;4978546;28;20546;-69
2024/02/17 08:17:18;;;;;;;38.50;28.20;;;13.20;99.90;;;;;;4993975;28;20493;-68
2024/02/17 08:19:43;;;;;;;40.50;29.00;;;13.20;99.90;;;;;;4995960;28;20506;-67
2024/02/17 08:22:09;;;;;;;41.63;29.27;;;13.20;99.90;;;;;;4994940;28;20246;-68
2024/02/17 08:24:35;;;;;;;41.83;30.57;;;13.20;99.90;;;;;;4978569;28;20176;-68
2024/02/17 08:27:01;;;;;;;44.13;28.87;;;13.20;99.90;;;;;;4994506;28;20897;-69
2024/02/17 08:29:26;;;;;;;43.87;29.83;;;13.20;99.90;;;;;;4995355;28;20213;-68
2024/02/17 08:31:52;;;;;;;39.30;29.33;;;13.30;99.90;;;;;;4995539;28;20190;-69
2024/02/17 08:34:18;;;;;;;40.17;28.50;;;13.30;99.90;;;;;;4994918;28;20631;-68
2024/02/17 08:36:44;;;;;;;44.00;31.20;;;13.30;99.90;;;;;;4977849;28;20216;-69
2024/02/17 08:39:10;;;;;;;46.27;29.97;;;13.30;99.90;;;;;;4994884;28;20358;-68
2024/02/17 08:41:36;;;;;;;41.37;29.40;;;13.30;99.90;;;;;;4995366;28;20185;-68
2024/02/17 08:44:02;;;;;;;43.83;28.63;;;13.30;99.90;;;;;;4995297;28;20882;-69
2024/02/17 08:46:28;;;;;;;41.63;29.73;;;13.30;99.90;;;;;;4992466;28;20194;-69
2024/02/17 08:48:53;;;;;;;41.63;29.40;;;13.20;99.90;;;;;;4962089;28;20434;-69
2024/02/17 08:51:19;;;;;;;40.90;28.60;;;13.20;99.90;;;;;;4976908;28;20175;-68
2024/02/17 08:53:45;;;;;;;40.40;28.27;;;13.20;99.90;;;;;;4994028;28;20168;-68
2024/02/17 08:56:10;;;;;;;45.90;30.87;;;13.30;99.90;;;;;;4994217;28;20222;-69
2024/02/17 08:58:36;;;;;;;45.57;28.50;;;13.30;99.90;;;;;;4994936;28;20317;-68
2024/02/17 09:01:02;;;;;;;47.77;29.00;;;13.30;99.90;;;;;;4995125;28;20186;-69
2024/02/17 09:03:28;;;;;;;38.53;27.43;;;13.30;99.90;;;;;;4993627;28;20182;-69
2024/02/17 09:05:54;;;;;;;44.07;29.37;;;13.30;99.90;;;;;;4977767;28;20411;-69
2024/02/17 09:08:19;;;;;;;42.27;28.10;;;13.20;99.90;;;;;;4994316;28;20647;-70
2024/02/17 09:10:45;;;;;;;42.00;28.37;;;13.20;99.90;;;;;;4977241;28;20259;-69
2024/02/17 09:13:11;;;;;;;55.60;30.90;;;13.30;99.90;;;;;;4960665;28;20190;-69
2024/02/17 09:15:37;;;;;;;47.50;30.43;;;13.30;99.90;;;;;;4994627;28;20176;-69
2024/02/17 09:18:03;;;;;;;43.90;29.80;;;13.20;99.90;;;;;;4994569;28;20501;-69
2024/02/17 09:20:28;;;;;;;40.73;30.80;;;13.30;99.90;;;;;;4993878;28;20179;-69
2024/02/17 09:22:54;;;;;;;45.67;29.00;;;13.30;99.90;;;;;;4994543;28;20176;-69
2024/02/17 09:25:20;;;;;;;45.20;31.70;;;13.30;99.90;;;;;;4993105;28;20197;-70
2024/02/17 09:27:46;;;;;;;43.60;30.60;;;13.30;99.90;;;;;;4994270;28;20191;-69
2024/02/17 09:30:13;;;;;;;45.03;31.80;;;13.40;99.90;;;;;;4991903;28;20183;-71
2024/02/17 09:32:38;;;;;;;47.47;29.30;;;13.40;99.90;;;;;;4994043;28;20570;-72
2024/02/17 09:35:05;;;;;;;38.60;29.00;;;13.40;99.90;;;;;;4994116;28;20506;-74
2024/02/17 09:37:30;;;;;;;45.03;31.57;;;13.50;99.90;;;;;;4993365;28;20650;-72
2024/02/17 09:39:56;;;;;;;42.23;31.87;;;13.60;99.90;;;;;;4993811;28;20534;-70
2024/02/17 09:42:22;;;;;;;50.50;32.53;;;13.60;99.90;;;;;;4992736;28;20535;-73
2024/02/17 09:44:48;;;;;;;48.33;31.40;;;13.60;99.90;;;;;;4994481;28;20186;-79
2024/02/17 09:47:15;;;;;;;45.30;32.10;;;13.60;99.90;;;;;;4993470;28;20240;-70
2024/02/17 09:49:43;;;;;;;55.13;32.70;;;13.60;99.90;;;;;;4993729;28;20427;-74
2024/02/17 09:52:10;;;;;;;394.97;230.53;;;13.60;99.90;;;;;;4992334;28;20474;-71
2024/02/17 09:54:38;;;;;;;119.37;76.67;;;13.60;99.90;;;;;;4993278;28;20416;-73
2024/02/17 09:57:05;;;;;;;43.70;30.97;;;13.60;99.90;;;;;;4993484;28;20459;-73
2024/02/17 09:59:31;;;;;;;49.10;32.90;;;13.60;99.90;;;;;;4992682;28;20414;-73
2024/02/17 10:01:57;;;;;;;46.20;29.90;;;13.60;99.90;;;;;;4991443;28;20537;-70
2024/02/17 10:04:23;;;;;;;47.00;31.57;;;13.60;99.90;;;;;;4989651;28;20186;-72
2024/02/17 10:06:59;;;;;;;44.60;31.03;;;13.60;99.90;;;;;;4972764;28;20415;-70
2024/02/17 10:09:27;;;;;;;45.63;29.83;;;13.60;99.90;;;;;;4988793;28;20433;-69
2024/02/17 10:11:53;;;;;;;48.87;32.97;;;13.60;99.90;;;;;;4989807;28;20446;-70
2024/02/17 10:14:23;;;;;;;44.17;29.67;;;13.60;99.90;;;;;;4988757;28;20433;-70
2024/02/17 10:16:57;;;;;;;53.90;29.93;;;13.60;99.90;;;;;;4988842;28;20479;-72
2024/02/17 10:19:23;;;;;;;42.80;30.20;;;13.70;99.90;;;;;;4988949;28;20411;-71
2024/02/17 10:21:48;;;;;;;45.13;30.80;;;13.70;99.90;;;;;;4988465;28;20533;-70
2024/02/17 10:24:14;;;;;;;39.30;29.60;;;13.70;99.90;;;;;;4970362;28;20755;-72
2024/02/17 10:26:41;;;;;;;43.87;30.43;;;13.60;99.90;;;;;;4993948;28;20673;-72
2024/02/17 10:29:08;;;;;;;45.50;30.27;;;13.60;99.90;;;;;;4989808;28;20190;-73
2024/02/17 10:31:33;;;;;;;45.63;29.30;;;13.60;99.90;;;;;;4991382;28;20880;-72
2024/02/17 10:33:59;;;;;;;47.37;30.27;;;13.70;99.90;;;;;;4992533;28;20522;-73
2024/02/17 10:36:26;;;;;;;43.27;30.67;;;13.60;99.90;;;;;;4990642;28;20188;-72
2024/02/17 10:38:54;;;;;;;49.13;30.83;;;13.60;99.90;;;;;;4992789;28;20184;-72
2024/02/17 10:41:20;;;;;;;101.03;77.30;;;13.60;99.90;;;;;;4990009;28;20571;-71
2024/02/17 10:43:47;;;;;;;387.10;260.47;;;13.60;99.90;;;;;;4974881;28;20965;-73
2024/02/17 10:46:27;;;;;;;63.70;42.10;;;13.60;99.90;;;;;;4991596;28;20438;-72
2024/02/17 10:49:34;;;;;;;43.00;29.70;;;13.60;99.90;;;;;;4992322;28;20415;-71
2024/02/17 10:52:04;;;;;;;47.70;29.80;;;13.60;99.90;;;;;;4991893;28;20439;-72
2024/02/17 10:54:48;;;;;;;46.30;30.67;;;13.60;99.90;;;;;;4997912;28;20442;-72
2024/02/17 10:57:16;;;;;;;52.43;31.77;;;13.60;99.90;;;;;;4992528;28;20461;-72
2024/02/17 10:59:46;;;;;;;48.93;30.57;;;13.60;99.90;;;;;;4993031;28;20518;-72
2024/02/17 11:02:18;;;;;;;46.17;29.57;;;13.60;99.90;;;;;;4991301;28;20474;-64
2024/02/17 11:04:44;;;;;;;45.40;30.40;;;13.70;99.90;;;;;;4989904;28;20505;-72
2024/02/17 11:07:11;;;;;;;46.53;29.80;;;13.70;99.90;;;;;;4991891;28;20812;-63
2024/02/17 11:09:37;;;;;;;45.13;29.10;;;13.70;99.90;;;;;;4993016;28;20432;-72
2024/02/17 11:12:28;;;;;;;45.10;30.37;;;13.70;99.90;;;;;;4992998;28;20553;-72
2024/02/17 11:15:01;;;;;;;45.67;31.73;;;13.80;99.90;;;;;;4975362;28;20177;-72
2024/02/17 11:17:35;;;;;;;46.57;31.80;;;13.80;99.90;;;;;;4990464;28;20483;-72
2024/02/17 11:20:06;;;;;;;50.60;32.27;;;13.80;99.90;;;;;;4989893;28;20435;-66
2024/02/17 11:22:32;;;;;;;47.37;33.30;;;13.80;99.90;;;;;;4991505;28;20462;-72
2024/02/17 11:24:57;;;;;;;47.20;32.87;;;13.80;99.90;;;;;;4991932;28;20430;-73
2024/02/17 11:27:27;;;;;;;46.53;31.23;;;13.80;99.90;;;;;;4990518;28;20193;-72
2024/02/17 11:30:00;;;;;;;49.03;32.67;;;13.90;99.90;;;;;;4992163;28;20186;-72
2024/02/17 11:32:28;;;;;;;45.47;29.97;;;13.90;99.90;;;;;;4990460;28;20443;-72
2024/02/17 11:34:57;;;;;;;45.50;31.30;;;13.90;99.90;;;;;;4992837;28;20412;-73
2024/02/17 11:37:24;;;;;;;46.20;31.73;;;13.90;99.90;;;;;;4991153;28;20464;-72
2024/02/17 11:39:50;;;;;;;48.60;31.00;;;13.80;99.90;;;;;;4992291;28;20557;-73
2024/02/17 11:42:20;;;;;;;49.27;30.63;;;13.80;99.90;;;;;;4992215;28;20489;-76
2024/02/17 11:44:46;;;;;;;41.90;29.80;;;13.70;99.90;;;;;;4992598;28;20423;-73
2024/02/17 11:47:13;;;;;;;47.10;31.77;;;13.70;99.90;;;;;;4994127;28;20415;-73
2024/02/17 11:49:41;;;;;;;47.63;31.00;;;13.70;99.90;;;;;;4995938;28;20434;-73
2024/02/17 11:52:08;;;;;;;45.63;30.30;;;13.70;99.90;;;;;;4978238;28;20470;-74
2024/02/17 11:54:35;;;;;;;40.00;28.87;;;13.70;99.90;;;;;;4975654;28;20767;-73
2024/02/17 11:57:07;;;;;;;44.47;30.30;;;13.70;99.90;;;;;;4976332;28;20539;-74
2024/02/17 11:59:36;;;;;;;47.67;31.07;;;13.70;99.90;;;;;;4978822;28;21145;-74
2024/02/17 12:02:03;;;;;;;47.87;30.07;;;13.80;99.90;;;;;;4996153;28;20446;-74
2024/02/17 12:04:29;;;;;;;42.00;29.90;;;13.80;99.90;;;;;;4994893;28;20485;-74
2024/02/17 12:06:55;;;;;;;40.50;27.70;;;13.80;99.90;;;;;;4995159;28;20516;-73
2024/02/17 12:09:21;;;;;;;39.13;28.03;;;13.80;99.90;;;;;;4995076;28;20910;-74
2024/02/17 12:11:47;;;;;;;37.53;27.83;;;13.80;99.90;;;;;;4995965;28;20177;-74
2024/02/17 12:14:16;;;;;;;43.60;28.23;;;13.80;99.90;;;;;;4977704;28;20203;-74
2024/02/17 12:16:42;;;;;;;38.77;29.00;;;13.80;99.90;;;;;;4995288;28;20430;-73
2024/02/17 12:19:09;;;;;;;41.77;27.73;;;13.90;99.90;;;;;;4995606;28;20929;-73
2024/02/17 12:21:39;;;;;;;41.47;27.37;;;13.80;99.90;;;;;;4994351;28;20427;-74
2024/02/17 12:24:06;;;;;;;42.20;29.37;;;13.80;99.90;;;;;;4978016;28;20469;-74
2024/02/17 12:26:33;;;;;;;41.03;28.57;;;13.70;99.90;;;;;;4995022;28;20456;-73